Time;durP1;ratioP1;P1;durP2;ratioP2;P2;SDS_P1;SDS_P2;PMS_P1;PMS_P2;Temp;Humidity;BMP_temperature;BMP_pressure;BME280_temperature;BME280_humidity;BME280_pressure;Samples;Min_cycle;Max_cycle;Signal;HPM_P1;HPM_P2
2023/02/11 00:02:20;;;;;;;;;;;;;;;;;;5007127;28;19928;-74
2023/02/11 00:04:46;;;;;;;;;;;;;;;;;;5028721;28;19926;-74
2023/02/11 00:07:12;;;;;;;;;;;;;;;;;;5019505;28;19929;-75
2023/02/11 00:09:38;;;;;;;;;;;;;;;;;;5031355;28;19929;-75
2023/02/11 00:12:04;;;;;;;;;;;;;;;;;;5031218;28;19928;-74
2023/02/11 00:14:30;;;;;;;;;;;;;;;;;;5011871;28;19959;-74
2023/02/11 00:16:56;;;;;;;;;;;;;;;;;;5020505;28;20558;-74
2023/02/11 00:19:21;;;;;;;;;;;;;;;;;;5026578;28;19929;-75
2023/02/11 00:21:47;;;;;;;;;;;;;;;;;;5032576;28;19984;-74
2023/02/11 00:24:13;;;;;;;;;;;;;;;;;;5032633;28;19943;-75
2023/02/11 00:26:39;;;;;;;;;;;;;;;;;;5034602;28;19933;-75
2023/02/11 00:29:05;;;;;;;;;;;;;;;;;;5013064;28;19967;-75
2023/02/11 00:31:31;;;;;;;;;;;;;;;;;;5018169;28;19976;-74
2023/02/11 00:33:57;;;;;;;;;;;;;;;;;;5015096;28;20388;-73
2023/02/11 00:36:23;;;;;;;;;;;;;;;;;;5004255;28;20354;-74
2023/02/11 00:38:49;;;;;;;;;;;;;;;;;;5017869;28;19929;-73
2023/02/11 00:41:15;;;;;;;;;;;;;;;;;;5010313;28;19929;-75
2023/02/11 00:43:41;;;;;;;;;;;;;;;;;;5003647;28;20496;-74
2023/02/11 00:46:07;;;;;;;;;;;;;;;;;;5011312;28;19933;-73
2023/02/11 00:48:32;;;;;;;;;;;;;;;;;;5000548;28;19931;-73
2023/02/11 00:50:58;;;;;;;;;;;;;;;;;;5010423;28;20055;-74
2023/02/11 00:53:24;;;;;;;;;;;;;;;;;;5010133;28;19924;-73
2023/02/11 00:55:50;;;;;;;;;;;;;;;;;;5007827;28;19928;-74
2023/02/11 00:58:16;;;;;;;;;;;;;;;;;;4999226;28;19933;-75
2023/02/11 01:00:42;;;;;;;;;;;;;;;;;;5021750;28;20010;-74
2023/02/11 01:03:08;;;;;;;;;;;;;;;;;;5009224;28;19978;-73
2023/02/11 01:05:34;;;;;;;;;;;;;;;;;;5020231;28;19924;-72
2023/02/11 01:08:00;;;;;;;;;;;;;;;;;;5020609;28;19979;-73
2023/02/11 01:10:27;;;;;;;;;;;;;;;;;;5018542;28;20441;-75
2023/02/11 01:12:53;;;;;;;;;;;;;;;;;;5033063;28;19974;-74
2023/02/11 01:15:19;;;;;;;;;;;;;;;;;;5029940;28;19932;-74
2023/02/11 01:17:45;;;;;;;;;;;;;;;;;;5020691;28;19966;-75
2023/02/11 01:20:11;;;;;;;;;;;;;;;;;;5032778;28;20334;-74
2023/02/11 01:22:38;;;;;;;;;;;;;;;;;;5039174;28;20039;-74
2023/02/11 01:25:04;;;;;;;;;;;;;;;;;;5038489;28;20012;-75
2023/02/11 01:27:30;;;;;;;;;;;;;;;;;;5041592;28;20019;-76
2023/02/11 01:29:56;;;;;;;;;;;;;;;;;;5025017;28;20362;-74
2023/02/11 01:32:22;;;;;;;;;;;;;;;;;;5043541;28;19924;-73
2023/02/11 01:34:47;;;;;;;;;;;;;;;;;;5039093;28;19921;-76
2023/02/11 01:37:13;;;;;;;;;;;;;;;;;;5023183;28;19929;-74
2023/02/11 01:39:39;;;;;;;;;;;;;;;;;;5028361;28;19921;-74
2023/02/11 01:42:05;;;;;;;;;;;;;;;;;;5039403;28;20423;-74
2023/02/11 01:44:31;;;;;;;;;;;;;;;;;;5042274;28;19959;-74
2023/02/11 01:46:57;;;;;;;;;;;;;;;;;;5041675;28;19925;-73
2023/02/11 01:49:23;;;;;;;;;;;;;;;;;;5023141;28;19925;-74
2023/02/11 01:51:49;;;;;;;;;;;;;;;;;;5028506;28;20475;-74
2023/02/11 01:59:45;;;;;;;;;;;;;;;;;;5027646;28;20000;-75
2023/02/11 02:02:11;;;;;;;;;;;;;;;;;;5009760;28;20008;-73
2023/02/11 02:04:37;;;;;;;;;;;;;;;;;;5006961;28;19929;-75
2023/02/11 02:07:03;;;;;;;;;;;;;;;;;;5031351;28;19924;-74
2023/02/11 02:09:28;;;;;;;;;;;;;;;;;;5029987;28;19927;-74
2023/02/11 02:11:54;;;;;;;;;;;;;;;;;;5020559;28;19920;-75
2023/02/11 02:14:20;;;;;;;;;;;;;;;;;;5007233;28;19921;-74
2023/02/11 02:16:46;;;;;;;;;;;;;;;;;;5028023;28;19929;-74
2023/02/11 02:19:12;;;;;;;;;;;;;;;;;;5027544;28;19929;-73
2023/02/11 02:21:38;;;;;;;;;;;;;;;;;;5025602;28;19935;-76
2023/02/11 02:24:04;;;;;;;;;;;;;;;;;;5025497;28;20435;-74
2023/02/11 02:26:30;;;;;;;;;;;;;;;;;;5028494;28;19932;-74
2023/02/11 02:28:56;;;;;;;;;;;;;;;;;;5015284;28;19925;-74
2023/02/11 02:31:22;;;;;;;;;;;;;;;;;;5026678;28;19929;-72
2023/02/11 02:33:47;;;;;;;;;;;;;;;;;;5029242;28;19921;-75
2023/02/11 02:36:13;;;;;;;;;;;;;;;;;;5023490;28;19964;-75
2023/02/11 02:38:39;;;;;;;;;;;;;;;;;;5026346;28;20432;-74
2023/02/11 02:41:05;;;;;;;;;;;;;;;;;;5028273;28;20596;-74
2023/02/11 02:43:31;;;;;;;;;;;;;;;;;;5014007;28;20211;-74
2023/02/11 02:45:57;;;;;;;;;;;;;;;;;;5023344;28;20285;-74
2023/02/11 02:48:23;;;;;;;;;;;;;;;;;;5015107;28;20059;-75
2023/02/11 02:50:49;;;;;;;;;;;;;;;;;;5027564;28;20418;-74
2023/02/11 02:53:15;;;;;;;;;;;;;;;;;;5035448;28;19955;-74
2023/02/11 02:55:41;;;;;;;;;;;;;;;;;;5035215;28;19920;-75
2023/02/11 02:58:07;;;;;;;;;;;;;;;;;;5024237;28;20011;-75
2023/02/11 03:00:33;;;;;;;;;;;;;;;;;;5030270;28;19929;-74
2023/02/11 03:02:59;;;;;;;;;;;;;;;;;;5022296;28;19920;-75
2023/02/11 03:05:25;;;;;;;;;;;;;;;;;;5023956;28;20400;-74
2023/02/11 03:07:51;;;;;;;;;;;;;;;;;;5023322;28;19929;-74
2023/02/11 03:10:17;;;;;;;;;;;;;;;;;;5026592;28;20230;-73
2023/02/11 03:12:43;;;;;;;;;;;;;;;;;;5031080;28;19955;-74
2023/02/11 03:15:08;;;;;;;;;;;;;;;;;;5033181;28;19974;-74
2023/02/11 03:17:34;;;;;;;;;;;;;;;;;;5029900;28;19928;-75
2023/02/11 03:20:00;;;;;;;;;;;;;;;;;;5014976;28;20513;-73
2023/02/11 03:22:26;;;;;;;;;;;;;;;;;;5029633;28;19929;-74
2023/02/11 03:24:52;;;;;;;;;;;;;;;;;;5031517;28;19920;-74
2023/02/11 03:27:18;;;;;;;;;;;;;;;;;;5014857;28;19977;-76
2023/02/11 03:29:44;;;;;;;;;;;;;;;;;;5011512;28;20019;-75
2023/02/11 03:32:11;;;;;;;;;;;;;;;;;;5015893;28;20599;-73
2023/02/11 03:34:37;;;;;;;;;;;;;;;;;;5031359;28;19929;-74
2023/02/11 03:37:03;;;;;;;;;;;;;;;;;;5026523;28;19927;-73
2023/02/11 03:39:29;;;;;;;;;;;;;;;;;;5032056;28;19971;-75
2023/02/11 03:41:55;;;;;;;;;;;;;;;;;;5017143;28;20576;-75
2023/02/11 03:44:20;;;;;;;;;;;;;;;;;;5029520;28;20011;-73
2023/02/11 03:46:46;;;;;;;;;;;;;;;;;;5016193;28;19925;-72
2023/02/11 03:49:12;;;;;;;;;;;;;;;;;;5026148;28;20287;-73
2023/02/11 03:51:38;;;;;;;;;;;;;;;;;;5017486;28;19932;-74
2023/02/11 03:54:04;;;;;;;;;;;;;;;;;;5027335;28;19921;-73
2023/02/11 03:56:30;;;;;;;;;;;;;;;;;;5027656;28;19925;-73
2023/02/11 03:58:56;;;;;;;;;;;;;;;;;;5030828;28;19921;-75
2023/02/11 04:01:22;;;;;;;;;;;;;;;;;;5025870;28;20413;-75
2023/02/11 04:03:48;;;;;;;;;;;;;;;;;;5014783;28;19929;-73
2023/02/11 04:06:14;;;;;;;;;;;;;;;;;;5030560;28;19925;-73
2023/02/11 04:08:39;;;;;;;;;;;;;;;;;;5028910;28;19932;-73
2023/02/11 04:11:05;;;;;;;;;;;;;;;;;;5023910;28;20394;-74
2023/02/11 04:13:31;;;;;;;;;;;;;;;;;;5032067;28;19968;-73
2023/02/11 04:15:57;;;;;;;;;;;;;;;;;;5013738;28;20011;-74
2023/02/11 04:18:23;;;;;;;;;;;;;;;;;;5023723;28;20302;-74
2023/02/11 04:20:49;;;;;;;;;;;;;;;;;;5012843;28;20505;-75
2023/02/11 04:23:15;;;;;;;;;;;;;;;;;;5030546;28;20004;-75
2023/02/11 04:25:41;;;;;;;;;;;;;;;;;;5027486;28;19925;-73
2023/02/11 04:28:07;;;;;;;;;;;;;;;;;;5014603;28;19931;-72
2023/02/11 04:30:33;;;;;;;;;;;;;;;;;;5021813;28;20296;-73
2023/02/11 04:32:59;;;;;;;;;;;;;;;;;;5030708;28;20355;-73
2023/02/11 04:35:24;;;;;;;;;;;;;;;;;;5016879;28;20028;-74
2023/02/11 04:37:50;;;;;;;;;;;;;;;;;;5029779;28;19995;-73
2023/02/11 04:40:16;;;;;;;;;;;;;;;;;;5028658;28;19961;-73
2023/02/11 04:42:42;;;;;;;;;;;;;;;;;;5013208;28;20043;-74
2023/02/11 04:45:08;;;;;;;;;;;;;;;;;;5018739;28;20702;-73
2023/02/11 04:47:35;;;;;;;;;;;;;;;;;;5015510;28;19939;-73
2023/02/11 04:50:00;;;;;;;;;;;;;;;;;;5028956;28;19927;-75
2023/02/11 04:52:26;;;;;;;;;;;;;;;;;;5015653;28;20417;-73
2023/02/11 04:54:52;;;;;;;;;;;;;;;;;;5027005;28;19924;-74
2023/02/11 04:57:18;;;;;;;;;;;;;;;;;;5027396;28;19928;-72
2023/02/11 04:59:44;;;;;;;;;;;;;;;;;;5005752;28;20129;-73
2023/02/11 05:02:10;;;;;;;;;;;;;;;;;;5026078;28;20932;-74
2023/02/11 05:04:36;;;;;;;;;;;;;;;;;;5027768;28;19921;-73
2023/02/11 05:07:02;;;;;;;;;;;;;;;;;;5130129;22;19925;-82
2023/02/11 05:09:28;;;;;;;;;;;;;;;;;;5059561;28;19928;-84
2023/02/11 05:11:54;;;;;;;;;;;;;;;;;;5058508;28;20683;-83
2023/02/11 05:14:19;;;;;;;;;;;;;;;;;;5071557;28;19929;-84
2023/02/11 05:16:46;;;;;;;;;;;;;;;;;;5046391;28;20410;-86
2023/02/11 05:19:11;;;;;;;;;;;;;;;;;;5037953;28;19973;-83
2023/02/11 05:21:37;;;;;;;;;;;;;;;;;;5058841;28;20008;-83
2023/02/11 05:24:03;;;;;;;;;;;;;;;;;;5043692;28;19928;-82
2023/02/11 05:26:29;;;;;;;;;;;;;;;;;;5053452;28;19924;-83
2023/02/11 05:28:55;;;;;;;;;;;;;;;;;;5052666;28;19924;-84
2023/02/11 05:31:21;;;;;;;;;;;;;;;;;;5049203;28;19921;-83
2023/02/11 05:33:47;;;;;;;;;;;;;;;;;;5056506;28;19920;-82
2023/02/11 05:36:13;;;;;;;;;;;;;;;;;;5075742;28;19921;-83
2023/02/11 05:38:39;;;;;;;;;;;;;;;;;;5059312;28;19936;-82
2023/02/11 05:41:05;;;;;;;;;;;;;;;;;;5060889;28;19974;-82
2023/02/11 05:43:31;;;;;;;;;;;;;;;;;;5062971;28;19928;-83
2023/02/11 05:45:57;;;;;;;;;;;;;;;;;;5050409;28;19928;-83
2023/02/11 05:48:23;;;;;;;;;;;;;;;;;;5056866;28;20610;-85
2023/02/11 05:50:49;;;;;;;;;;;;;;;;;;5072844;28;19927;-85
2023/02/11 05:53:15;;;;;;;;;;;;;;;;;;5057278;28;19942;-83
2023/02/11 05:55:41;;;;;;;;;;;;;;;;;;5053843;28;19928;-84
2023/02/11 05:58:10;;;;;;;;;;;;;;;;;;5076833;28;20016;-84
2023/02/11 06:00:36;;;;;;;;;;;;;;;;;;5078283;28;19923;-84
2023/02/11 06:03:03;;;;;;;;;;;;;;;;;;5053976;28;20353;-83
2023/02/11 06:05:29;;;;;;;;;;;;;;;;;;5059119;28;19925;-83
2023/02/11 06:07:55;;;;;;;;;;;;;;;;;;5060025;28;20032;-84
2023/02/11 06:10:21;;;;;;;;;;;;;;;;;;5049346;28;20442;-86
2023/02/11 06:12:47;;;;;;;;;;;;;;;;;;5061099;28;19927;-83
2023/02/11 06:15:12;;;;;;;;;;;;;;;;;;5059801;28;19928;-85
2023/02/11 06:17:38;;;;;;;;;;;;;;;;;;5063485;28;20003;-80
2023/02/11 06:20:04;;;;;;;;;;;;;;;;;;5075232;28;19920;-82
2023/02/11 06:22:30;;;;;;;;;;;;;;;;;;5065832;28;20272;-84
2023/02/11 06:24:56;;;;;;;;;;;;;;;;;;5042854;28;20630;-83
2023/02/11 06:27:22;;;;;;;;;;;;;;;;;;5054055;28;19933;-88
2023/02/11 06:29:48;;;;;;;;;;;;;;;;;;5058152;28;19936;-83
2023/02/11 06:32:14;;;;;;;;;;;;;;;;;;5047826;28;19929;-85
2023/02/11 06:34:40;;;;;;;;;;;;;;;;;;5035051;28;19924;-84
2023/02/11 06:37:06;;;;;;;;;;;;;;;;;;5057103;28;19986;-85
2023/02/11 06:39:32;;;;;;;;;;;;;;;;;;5057931;28;20631;-84
2023/02/11 06:41:58;;;;;;;;;;;;;;;;;;5051158;28;19972;-83
2023/02/11 06:44:24;;;;;;;;;;;;;;;;;;5049519;28;19978;-85
2023/02/11 06:46:49;;;;;;;;;;;;;;;;;;5051665;28;20015;-84
2023/02/11 06:49:15;;;;;;;;;;;;;;;;;;5049935;28;20436;-83
2023/02/11 06:51:41;;;;;;;;;;;;;;;;;;5050229;28;20337;-82
2023/02/11 06:54:07;;;;;;;;;;;;;;;;;;5055234;28;20011;-84
2023/02/11 06:56:33;;;;;;;;;;;;;;;;;;5049166;28;20007;-83
2023/02/11 06:58:59;;;;;;;;;;;;;;;;;;5042865;28;19925;-85
2023/02/11 07:01:25;;;;;;;;;;;;;;;;;;5036096;28;19928;-83
2023/02/11 07:03:51;;;;;;;;;;;;;;;;;;5042265;28;19920;-84
2023/02/11 07:06:17;;;;;;;;;;;;;;;;;;5040344;28;19932;-83
2023/02/11 07:08:44;;;;;;;;;;;;;;;;;;5060252;28;20408;-85
2023/02/11 07:11:10;;;;;;;;;;;;;;;;;;5052519;28;19928;-84
2023/02/11 07:13:36;;;;;;;;;;;;;;;;;;5050197;28;19921;-84
2023/02/11 07:16:02;;;;;;;;;;;;;;;;;;5053611;28;20166;-85
2023/02/11 07:18:28;;;;;;;;;;;;;;;;;;5047731;28;19925;-83
2023/02/11 07:20:54;;;;;;;;;;;;;;;;;;5045950;28;19928;-84
2023/02/11 07:23:20;;;;;;;;;;;;;;;;;;5047083;28;20070;-85
2023/02/11 07:25:46;;;;;;;;;;;;;;;;;;5049496;28;20041;-84
2023/02/11 07:28:12;;;;;;;;;;;;;;;;;;5057965;28;19924;-85
2023/02/11 07:30:38;;;;;;;;;;;;;;;;;;5038320;28;19931;-84
2023/02/11 07:33:03;;;;;;;;;;;;;;;;;;5057056;28;19929;-81
2023/02/11 07:35:29;;;;;;;;;;;;;;;;;;5058433;28;20131;-82
2023/02/11 07:37:58;;;;;;;;;;;;;;;;;;5057586;28;20538;-81
2023/02/11 07:40:24;;;;;;;;;;;;;;;;;;5044781;28;19935;-84
2023/02/11 07:42:50;;;;;;;;;;;;;;;;;;5060660;28;19931;-83
2023/02/11 07:45:16;;;;;;;;;;;;;;;;;;5042684;28;23138;-82
2023/02/11 07:47:42;;;;;;;;;;;;;;;;;;5038190;28;19939;-82
2023/02/11 07:50:08;;;;;;;;;;;;;;;;;;5037824;28;20015;-82
2023/02/11 07:52:34;;;;;;;;;;;;;;;;;;5051487;28;19928;-83
2023/02/11 07:55:00;;;;;;;;;;;;;;;;;;5035214;28;20057;-83
2023/02/11 07:57:26;;;;;;;;;;;;;;;;;;5034078;28;21292;-82
2023/02/11 07:59:52;;;;;;;;;;;;;;;;;;5035262;28;19920;-84
2023/02/11 08:02:18;;;;;;;;;;;;;;;;;;5039693;28;19925;-81
2023/02/11 08:04:43;;;;;;;;;;;;;;;;;;5055585;28;19935;-82
2023/02/11 08:07:09;;;;;;;;;;;;;;;;;;5046363;28;20284;-83
2023/02/11 08:09:35;;;;;;;;;;;;;;;;;;5046562;28;19970;-83
2023/02/11 08:12:01;;;;;;;;;;;;;;;;;;5061510;28;20008;-80
2023/02/11 08:14:27;;;;;;;;;;;;;;;;;;5061516;28;19927;-84
2023/02/11 08:16:53;;;;;;;;;;;;;;;;;;5057185;28;20546;-84
2023/02/11 08:19:19;;;;;;;;;;;;;;;;;;5066760;28;19920;-83
2023/02/11 08:21:45;;;;;;;;;;;;;;;;;;5050265;28;20309;-83
2023/02/11 08:24:11;;;;;;;;;;;;;;;;;;5062012;28;20047;-82
2023/02/11 08:26:37;;;;;;;;;;;;;;;;;;5059566;28;20024;-84
2023/02/11 08:29:03;;;;;;;;;;;;;;;;;;5048041;28;19996;-81
2023/02/11 08:31:29;;;;;;;;;;;;;;;;;;5050866;28;19920;-81
2023/02/11 08:33:57;;;;;;;;;;;;;;;;;;5071090;28;20398;-81
2023/02/11 08:36:22;;;;;;;;;;;;;;;;;;5053811;28;19947;-82
2023/02/11 08:38:48;;;;;;;;;;;;;;;;;;5053125;28;19921;-82
2023/02/11 08:41:14;;;;;;;;;;;;;;;;;;5061522;28;20024;-82
2023/02/11 08:43:40;;;;;;;;;;;;;;;;;;5068749;28;19928;-82
2023/02/11 08:46:06;;;;;;;;;;;;;;;;;;5069105;28;19928;-81
2023/02/11 08:48:32;;;;;;;;;;;;;;;;;;5064779;28;19940;-81
2023/02/11 08:50:58;;;;;;;;;;;;;;;;;;5054433;28;19944;-81
2023/02/11 08:53:24;;;;;;;;;;;;;;;;;;5055064;28;19928;-81
2023/02/11 08:55:50;;;;;;;;;;;;;;;;;;5063172;28;20851;-81
2023/02/11 08:58:16;;;;;;;;;;;;;;;;;;5060145;28;19924;-84
2023/02/11 09:00:44;;;;;;;;;;;;;;;;;;5053797;28;20274;-82
2023/02/11 09:03:10;;;;;;;;;;;;;;;;;;5058202;28;20774;-82
2023/02/11 09:05:36;;;;;;;;;;;;;;;;;;5057579;28;19921;-82
2023/02/11 09:08:02;;;;;;;;;;;;;;;;;;5056814;28;19932;-83
2023/02/11 09:10:27;;;;;;;;;;;;;;;;;;5058301;28;19935;-83
2023/02/11 09:12:53;;;;;;;;;;;;;;;;;;5058463;28;20294;-82
2023/02/11 09:15:19;;;;;;;;;;;;;;;;;;5053721;28;24306;-82
2023/02/11 09:17:45;;;;;;;;;;;;;;;;;;5036622;28;19920;-80
2023/02/11 09:20:11;;;;;;;;;;;;;;;;;;5056228;28;20016;-82
2023/02/11 09:22:37;;;;;;;;;;;;;;;;;;5051466;28;19927;-82
2023/02/11 09:25:03;;;;;;;;;;;;;;;;;;5043688;28;19920;-82
2023/02/11 09:27:29;;;;;;;;;;;;;;;;;;5070848;28;19936;-81
2023/02/11 09:29:55;;;;;;;;;;;;;;;;;;5076592;28;19928;-83
2023/02/11 09:32:21;;;;;;;;;;;;;;;;;;5050713;28;19924;-81
2023/02/11 09:34:47;;;;;;;;;;;;;;;;;;5058853;28;19955;-83
2023/02/11 09:37:13;;;;;;;;;;;;;;;;;;5055822;28;19978;-81
2023/02/11 09:39:44;;;;;;;;;;;;;;;;;;5055292;28;19956;-81
2023/02/11 09:42:10;;;;;;;;;;;;;;;;;;5057639;28;19924;-83
2023/02/11 09:44:36;;;;;;;;;;;;;;;;;;5070999;28;19934;-81
2023/02/11 09:47:02;;;;;;;;;;;;;;;;;;5049089;28;21983;-83
2023/02/11 09:49:29;;;;;;;;;;;;;;;;;;5042589;28;20515;-81
2023/02/11 09:51:55;;;;;;;;;;;;;;;;;;5050707;28;20018;-82
2023/02/11 09:54:21;;;;;;;;;;;;;;;;;;5059640;28;19936;-83
2023/02/11 09:56:50;;;;;;;;;;;;;;;;;;5059804;28;20287;-82
2023/02/11 09:59:16;;;;;;;;;;;;;;;;;;5053499;28;19920;-82
2023/02/11 10:01:42;;;;;;;;;;;;;;;;;;5032944;28;19924;-83
2023/02/11 10:04:08;;;;;;;;;;;;;;;;;;5061906;28;20264;-82
2023/02/11 10:06:34;;;;;;;;;;;;;;;;;;5058964;28;19977;-83
2023/02/11 10:09:00;;;;;;;;;;;;;;;;;;5059441;28;19950;-82
2023/02/11 10:11:26;;;;;;;;;;;;;;;;;;5073941;28;19927;-82
2023/02/11 10:13:52;;;;;;;;;;;;;;;;;;5052494;28;19928;-83
2023/02/11 10:16:18;;;;;;;;;;;;;;;;;;5052347;28;19921;-82
2023/02/11 10:18:44;;;;;;;;;;;;;;;;;;5053645;28;20532;-83
2023/02/11 10:21:09;;;;;;;;;;;;;;;;;;5051839;28;20521;-82
2023/02/11 10:23:35;;;;;;;;;;;;;;;;;;5045362;28;19928;-83
2023/02/11 10:26:01;;;;;;;;;;;;;;;;;;5041702;28;19921;-83
2023/02/11 10:28:27;;;;;;;;;;;;;;;;;;5057130;28;19935;-84
2023/02/11 10:30:53;;;;;;;;;;;;;;;;;;5055059;28;20517;-82
2023/02/11 10:33:19;;;;;;;;;;;;;;;;;;5052610;28;19936;-85
2023/02/11 10:35:45;;;;;;;;;;;;;;;;;;5068331;28;19925;-84
2023/02/11 10:38:11;;;;;;;;;;;;;;;;;;5071856;28;20542;-82
2023/02/11 10:40:37;;;;;;;;;;;;;;;;;;5051580;28;20337;-83
2023/02/11 10:43:06;;;;;;;;;;;;;;;;;;5040666;28;19935;-83
2023/02/11 10:45:35;;;;;;;;;;;;;;;;;;5037811;28;19920;-83
2023/02/11 10:48:01;;;;;;;;;;;;;;;;;;5046843;28;19939;-82
2023/02/11 10:50:27;;;;;;;;;;;;;;;;;;5046550;28;19924;-83
2023/02/11 10:52:53;;;;;;;;;;;;;;;;;;5069567;28;21095;-84
2023/02/11 10:55:22;;;;;;;;;;;;;;;;;;5039212;28;19926;-82
2023/02/11 10:57:58;;;;;;;;;;;8.70;99.90;;;;;;5061371;28;19925;-83
2023/02/11 11:00:36;;;;;;;;;;;9.00;99.90;;;;;;5035432;28;19924;-81
2023/02/11 11:03:04;;;;;;;;;;;9.00;99.90;;;;;;5069111;28;20437;-83
2023/02/11 11:05:44;;;;;;;;;;;9.10;99.90;;;;;;5035299;28;19936;-85
2023/02/11 11:08:11;;;;;;;;;;;9.10;99.90;;;;;;5043821;22;19929;-76
2023/02/11 11:10:43;;;;;;;;;;;9.10;99.90;;;;;;5019012;28;19936;-75
2023/02/11 11:13:22;;;;;;;;;;;9.20;99.90;;;;;;5026681;28;20406;-77
2023/02/11 11:16:05;;;;;;;;;;;9.20;99.90;;;;;;5026492;28;19936;-78
2023/02/11 11:18:30;;;;;;;;;;;;;;;;;;5020298;28;19932;-78
2023/02/11 11:20:58;;;;;;;;;;;9.20;99.90;;;;;;5017488;28;19932;-75
2023/02/11 11:23:24;;;;;;;;;;;;;;;;;;5021864;28;20014;-76
2023/02/11 11:25:50;;;;;;;;;;;;;;;;;;5024809;28;19928;-76
2023/02/11 11:28:16;;;;;;;;;;;;;;;;;;5000846;28;19973;-77
2023/02/11 11:30:42;;;;;;;;;;;;;;;;;;4997204;28;20077;-76
2023/02/11 11:33:08;;;;;;;;;;;;;;;;;;5030476;28;19952;-75
2023/02/11 11:35:34;;;;;;;;;;;;;;;;;;5026567;28;20675;-76
2023/02/11 11:37:59;;;;;;;;;;;;;;;;;;5024686;28;19960;-76
2023/02/11 11:40:25;;;;;;;;;;;;;;;;;;5028614;28;20012;-77
2023/02/11 11:42:51;;;;;;;;;;;;;;;;;;5026903;28;19935;-75
2023/02/11 11:45:21;;;;;;;;;;;;;;;;;;5030914;28;19935;-75
2023/02/11 11:47:47;;;;;;;;;;;;;;;;;;5021760;28;19929;-75
2023/02/11 11:50:13;;;;;;;;;;;;;;;;;;5027650;28;19929;-76
2023/02/11 11:52:39;;;;;;;;;;;;;;;;;;5016417;28;19931;-76
2023/02/11 11:55:05;;;;;;;;;;;;;;;;;;5011386;28;20040;-77
2023/02/11 11:57:32;;;;;;;;;;;;;;;;;;5018811;28;20004;-75
2023/02/11 11:59:58;;;;;;;;;;;;;;;;;;5011138;28;20015;-75
2023/02/11 12:02:24;;;;;;;;;;;;;;;;;;5023911;28;19932;-75
2023/02/11 12:04:50;;;;;;;;;;;;;;;;;;5021901;28;20073;-76
2023/02/11 12:07:16;;;;;;;;;;;;;;;;;;5030730;28;20371;-78
2023/02/11 12:09:42;;;;;;;;;;;;;;;;;;5019934;28;19972;-74
2023/02/11 12:12:08;;;;;;;;;;;;;;;;;;5029052;28;20008;-76
2023/02/11 12:14:34;;;;;;;;;;;;;;;;;;5029238;28;20196;-75
2023/02/11 12:16:59;;;;;;;;;;;;;;;;;;5031475;28;20193;-76
2023/02/11 12:19:25;;;;;;;;;;;;;;;;;;5032056;28;20295;-77
2023/02/11 12:21:51;;;;;;;;;;;;;;;;;;5011746;28;20342;-76
2023/02/11 12:24:17;;;;;;;;;;;;;;;;;;5033143;28;19928;-77
2023/02/11 12:26:43;;;;;;;;;;;;;;;;;;5030363;28;20521;-75
2023/02/11 12:29:09;;;;;;;;;;;;;;;;;;5032417;28;19935;-76
2023/02/11 12:31:35;;;;;;;;;;;;;;;;;;5020621;28;19932;-74
2023/02/11 12:34:01;;;;;;;;;;;;;;;;;;5031041;28;19921;-75
2023/02/11 12:36:27;;;;;;;;;;;;;;;;;;5020293;28;19932;-77
2023/02/11 12:38:53;;;;;;;;;;;;;;;;;;5015376;28;19925;-77
2023/02/11 12:43:14;;;;;;;;;;;;;;;;;;5016536;28;19928;-75
2023/02/11 12:44:05;;;;;;;;;;;;;;;;;;5032555;28;20448;-76
2023/02/11 12:46:31;;;;;;;;;;;;;;;;;;5032444;28;20007;-77
2023/02/11 12:48:57;;;;;;;;;;;;;;;;;;5025800;28;20017;-76
2023/02/11 12:51:23;;;;;;;;;;;;;;;;;;5023792;28;19935;-76
2023/02/11 12:53:49;;;;;;;;;;;;;;;;;;5018947;28;20403;-74
2023/02/11 12:56:14;;;;;;;;;;;;;;;;;;5026569;28;19924;-76
2023/02/11 12:58:40;;;;;;;;;;;;;;;;;;5034355;28;21213;-76
2023/02/11 13:01:06;;;;;;;;;;;;;;;;;;5031602;28;19929;-77
2023/02/11 13:03:33;;;;;;;;;;;;;;;;;;5028903;28;19921;-76
2023/02/11 13:05:59;;;;;;;;;;;;;;;;;;5031485;28;19929;-75
2023/02/11 13:08:24;;;;;;;;;;;;;;;;;;5030838;28;19932;-77
2023/02/11 13:10:50;;;;;;;;;;;;;;;;;;5029816;28;19921;-76
2023/02/11 13:13:16;;;;;;;;;;;;;;;;;;5013426;28;19931;-75
2023/02/11 13:15:42;;;;;;;;;;;;;;;;;;5016056;28;19952;-75
2023/02/11 13:18:08;;;;;;;;;;;;;;;;;;5014558;28;19964;-78
2023/02/11 13:20:34;;;;;;;;;;;;;;;;;;5029527;28;19925;-75
2023/02/11 13:23:00;;;;;;;;;;;;;;;;;;5030283;28;19927;-75
2023/02/11 13:25:26;;;;;;;;;;;;;;;;;;5009151;28;19928;-77
2023/02/11 13:27:57;;;;;;;;;;;;;;;;;;5016051;28;20391;-75
2023/02/11 13:30:26;;;;;;;;;;;;;;;;;;5019816;28;19933;-77
2023/02/11 13:32:52;;;;;;;;;;;;;;;;;;5008973;28;20229;-76
2023/02/11 13:35:18;;;;;;;;;;;;;;;;;;5012824;28;19921;-75
2023/02/11 13:37:44;;;;;;;;;;;;;;;;;;5027955;28;19929;-74
2023/02/11 13:40:10;;;;;;;;;;;;;;;;;;5012875;28;19936;-77
2023/02/11 13:42:36;;;;;;;;;;;;;;;;;;5026782;28;20644;-78
2023/02/11 13:45:02;;;;;;;;;;;;;;;;;;5027432;28;19921;-77
2023/02/11 13:47:29;;;;;;;;;;;9.30;99.90;;;;;;5029758;28;19925;-76
2023/02/11 13:49:54;;;;;;;;;;;10.30;99.90;;;;;;5028698;28;19948;-75
2023/02/11 13:52:26;;;;;;;;;;;10.30;99.90;;;;;;5008366;28;20399;-75
2023/02/11 13:54:53;;;;;;;;;;;10.30;99.90;;;;;;5024031;28;19936;-76
2023/02/11 13:57:18;;;;;;;;;;;10.30;99.90;;;;;;5027167;28;19928;-75
2023/02/11 13:59:54;;;;;;;;;;;10.30;99.90;;;;;;5016676;28;19974;-76
2023/02/11 14:11:01;;;;;;;;;;;10.30;99.90;;;;;;5027327;28;19920;-76
2023/02/11 14:13:47;;;;;;;;;;;10.30;99.90;;;;;;5010174;28;20269;-75
2023/02/11 14:16:22;;;;;;;;;;;10.30;99.90;;;;;;5005354;28;19935;-76
2023/02/11 14:18:48;;;;;;;;;;;10.20;99.90;;;;;;5029309;28;20031;-75
2023/02/11 14:21:29;;;;;;;;;;;10.20;99.90;;;;;;5012995;28;20059;-75
2023/02/11 14:24:00;;;;;;;;;;;10.20;99.90;;;;;;5017396;28;19928;-75
2023/02/11 14:26:45;;;;;;;;;;;10.20;99.90;;;;;;5028673;28;20315;-75
2023/02/11 14:29:19;;;;;;;;;;;10.20;99.90;;;;;;5031385;28;20417;-75
2023/02/11 14:31:57;;;;;;;;;;;10.10;99.90;;;;;;5025471;28;19929;-76
2023/02/11 14:34:34;;;;;;;;;;;10.10;99.90;;;;;;5024857;28;19921;-75
2023/02/11 14:37:00;;;;;;;;;;;10.10;99.90;;;;;;5022138;28;19927;-75
2023/02/11 14:39:31;;;;;;;;;;;10.20;99.90;;;;;;5021345;28;20400;-75
2023/02/11 14:42:00;;;;;;;;;;;10.10;99.90;;;;;;5028973;28;19921;-75
2023/02/11 14:44:26;;;;;;;;;;;;;;;;;;5031386;28;20031;-77
2023/02/11 14:46:52;;;;;;;;;;;10.10;99.90;;;;;;5028885;28;20055;-76
2023/02/11 14:49:32;;;;;;;;;;;10.10;99.90;;;;;;5022022;28;19928;-75
2023/02/11 14:52:05;;;;;;;;;;;10.10;99.90;;;;;;4994010;28;19925;-74
2023/02/11 14:54:31;;;;;;;;;;;10.00;99.90;;;;;;5009117;28;19952;-74
2023/02/11 14:57:07;;;;;;;;;;;10.00;99.90;;;;;;5037176;28;19925;-75
2023/02/11 14:59:32;;;;;;;;;;;10.00;99.90;;;;;;5025342;28;19984;-75
2023/02/11 15:01:58;;;;;;;;;;;9.90;99.90;;;;;;5028215;28;20008;-76
2023/02/11 15:04:29;;;;;;;;;;;10.00;99.90;;;;;;5041295;28;19925;-75
2023/02/11 15:06:56;;;;;;;;;;;9.90;99.90;;;;;;5035612;28;20012;-75
2023/02/11 15:09:45;;;;;;;;;;;9.90;99.90;;;;;;5043268;28;19928;-75
2023/02/11 15:12:16;;;;;;;;;;;9.90;99.90;;;;;;5045101;28;19921;-75
2023/02/11 15:14:45;;;;;;;;;;;9.90;99.90;;;;;;5028548;28;19936;-75
2023/02/11 15:17:13;;;;;;;;;;;9.80;99.90;;;;;;5040909;28;20309;-75
2023/02/11 15:19:41;;;;;;;;;;;9.80;99.90;;;;;;5051011;28;19925;-75
2023/02/11 15:22:17;;;;;;;;;;;9.80;99.90;;;;;;5029213;28;20221;-75
2023/02/11 15:24:43;;;;;;;;;;;9.80;99.90;;;;;;5026718;28;19932;-75
2023/02/11 15:27:13;;;;;;;;;;;9.80;99.90;;;;;;5006457;28;19928;-76
2023/02/11 15:29:41;;;;;;;;;;;9.80;99.90;;;;;;5032049;28;19925;-75
2023/02/11 15:32:14;;;;;;;;;;;9.80;99.90;;;;;;5031032;28;19921;-75
2023/02/11 15:34:40;;;;;;;;;;;9.70;99.90;;;;;;5019009;28;19928;-76
2023/02/11 15:37:06;;;;;;;;;;;9.70;99.90;;;;;;5035402;28;19925;-75
2023/02/11 15:39:31;;;;;;;;;;;9.70;99.90;;;;;;5030443;28;19927;-75
2023/02/11 15:42:14;;;;;;;;;;;9.70;99.90;;;;;;5026658;28;20024;-75
2023/02/11 15:44:40;;;;;;;;;;;9.70;99.90;;;;;;5020617;28;19924;-76
2023/02/11 15:47:08;;;;;;;;;;;9.70;99.90;;;;;;5030352;28;19928;-76
2023/02/11 15:49:34;;;;;;;;;;;9.70;99.90;;;;;;5023827;28;20298;-76
2023/02/11 15:51:59;;;;;;;;;;;9.70;99.90;;;;;;5017391;28;20243;-75
2023/02/11 15:54:26;;;;;;;;;;;9.70;99.90;;;;;;5029415;28;19921;-75
2023/02/11 15:56:54;;;;;;;;;;;9.70;99.90;;;;;;5029055;28;20372;-75
2023/02/11 15:59:24;;;;;;;;;;;9.60;99.90;;;;;;5015747;28;19932;-75
2023/02/11 16:01:50;;;;;;;;;;;9.60;99.90;;;;;;5031348;28;19921;-75
2023/02/11 16:04:17;;;;;;;;;;;9.60;99.90;;;;;;5028721;28;20474;-75
2023/02/11 16:06:46;;;;;;;;;;;9.70;99.90;;;;;;5029851;28;19921;-75
2023/02/11 16:09:11;;;;;;;;;;;9.60;99.90;;;;;;5016561;28;19940;-75
2023/02/11 16:11:37;;;;;;;;;;;9.60;99.90;;;;;;5027758;28;20283;-76
2023/02/11 16:14:22;;;;;;;;;;;9.60;99.90;;;;;;5031232;28;19925;-76
2023/02/11 16:16:49;;;;;;;;;;;;;;;;;;5012487;28;19929;-75
2023/02/11 16:19:14;;;;;;;;;;;;;;;;;;5028855;28;19925;-75
2023/02/11 16:21:41;;;;;;;;;;;;;;;;;;5027389;28;19975;-75
2023/02/11 16:24:07;;;;;;;;;;;;;;;;;;5032958;28;19935;-75
2023/02/11 16:26:33;;;;;;;;;;;;;;;;;;5031302;28;20121;-75
2023/02/11 16:28:59;;;;;;;;;;;;;;;;;;5028761;28;19929;-76
2023/02/11 16:31:25;;;;;;;;;;;;;;;;;;5014952;28;19924;-75